Airfield :
LOGIN :

Register | Disclaimer

   EN    FR    IT 

 










Legend :    VFR   Marginal VFR   IFR   Intensive IFR   Very Intensive IFR
Visi :
Ceiling :
>= 8 km
>= 3000ft
5 to 8 km
1000 to 3000 ft
1500m to 5 km
500 to 1000 ft
800 to 1500m
200 to 500 ft
< 800m
< 200 ft
Symbols :   Thunderstorms  Fog  Heavy snow  Heavy precipitations  Wind > 20 kt
SIGMETs :     Misc.  Thunderstorms  Icing  Turbulence  Mountain Waves  Volcanic Ashes







- Airport Elevation : 144 ft
- IATA code : PGF
- Download approach charts


LFMP - Perpignan

CURRENT METAR :
  • 241330Z AUTO 12008KT 080V160 CAVOK 28/13 Q1018 NOSIG

EXPIRED METARs :
  • 241300Z AUTO 11008KT 080V150 CAVOK 28/13 Q1018 NOSIG
  • 241230Z AUTO 13005KT 080V220 CAVOK 28/14 Q1018 NOSIG
  • 241200Z AUTO 11006KT CAVOK 27/14 Q1018 NOSIG
  • 241130Z AUTO 11004KT 050V170 9999 FEW014 26/15 Q1019 NOSIG
  • 241100Z AUTO 12003KT 040V200 CAVOK 25/14 Q1019 NOSIG

TAF TAF LFMP
Valid from the 24 at 09:00 until the 25 at 09:00 UTC


240800Z 2409/2509 VRB02KT CAVOK
BECMG 2411/2413 13010KT CAVOK
BECMG 2416/2418 VRB03KT
ATIS : +33 4 68 63 75 12
No reported NOTAMs for that airfield.



MET'MAP, your aeronautical weather chart ! - Copyright ORBIFLY December 2007 - Disclaimer

ORBIFLY MET'MAP TEAM :

Programming & Development : Alexandra Zaïnal
Concept & Development : Baudouin d'Aumeries
Co-Development & Prog : Marc-Olivier Méhu
Technical & hardware support : Manuel Goepfert

Contact : metmap@orbifly.com




SOURCES & CREDITS :

   NOAA